sensor_id;sensor_type;location;lat;lon;timestamp;pressure;altitude;pressure_sealevel;temperature;humidity
59493;BME280;45497;43.996;22.876;2023-01-30T00:01:20;101779.88;;;3.32;50.98
59493;BME280;45497;43.996;22.876;2023-01-30T00:03:46;101793.16;;;3.43;50.87
59493;BME280;45497;43.996;22.876;2023-01-30T00:06:12;101791.72;;;3.52;50.84
59493;BME280;45497;43.996;22.876;2023-01-30T00:08:38;101784.41;;;3.57;50.82
59493;BME280;45497;43.996;22.876;2023-01-30T00:11:06;101781.72;;;3.44;50.97
59493;BME280;45497;43.996;22.876;2023-01-30T00:13:32;101778.19;;;3.31;51.29
59493;BME280;45497;43.996;22.876;2023-01-30T00:15:58;101787.28;;;3.25;51.29
59493;BME280;45497;43.996;22.876;2023-01-30T00:18:23;101778.16;;;3.45;50.81
59493;BME280;45497;43.996;22.876;2023-01-30T00:20:54;101783.78;;;3.54;50.61
59493;BME280;45497;43.996;22.876;2023-01-30T00:23:20;101773.34;;;3.67;50.35
59493;BME280;45497;43.996;22.876;2023-01-30T00:25:45;101781.59;;;3.88;50.05
59493;BME280;45497;43.996;22.876;2023-01-30T00:28:11;101774.97;;;3.82;50.09
59493;BME280;45497;43.996;22.876;2023-01-30T00:30:36;101774.59;;;4.01;49.49
59493;BME280;45497;43.996;22.876;2023-01-30T00:33:02;101781.53;;;4.02;50.06
59493;BME280;45497;43.996;22.876;2023-01-30T00:35:27;101766.59;;;3.90;49.91
59493;BME280;45497;43.996;22.876;2023-01-30T00:37:56;101773.47;;;3.78;50.29
59493;BME280;45497;43.996;22.876;2023-01-30T00:40:24;101752.91;;;3.72;50.17
59493;BME280;45497;43.996;22.876;2023-01-30T00:42:50;101766.78;;;3.32;51.18
59493;BME280;45497;43.996;22.876;2023-01-30T00:45:34;101773.66;;;3.62;50.88
59493;BME280;45497;43.996;22.876;2023-01-30T00:48:19;101766.19;;;3.69;50.32
59493;BME280;45497;43.996;22.876;2023-01-30T00:50:45;101766.38;;;3.80;50.25
59493;BME280;45497;43.996;22.876;2023-01-30T00:53:11;101773.97;;;3.97;50.07
59493;BME280;45497;43.996;22.876;2023-01-30T00:55:37;101771.22;;;3.86;50.33
59493;BME280;45497;43.996;22.876;2023-01-30T00:58:03;101770.59;;;3.95;49.70
59493;BME280;45497;43.996;22.876;2023-01-30T01:00:28;101753.53;;;3.75;50.50
59493;BME280;45497;43.996;22.876;2023-01-30T01:02:54;101765.38;;;3.68;50.26
59493;BME280;45497;43.996;22.876;2023-01-30T01:05:19;101758.06;;;3.73;50.09
59493;BME280;45497;43.996;22.876;2023-01-30T01:07:45;101759.63;;;3.76;50.50
59493;BME280;45497;43.996;22.876;2023-01-30T01:10:10;101754.78;;;3.70;50.00
59493;BME280;45497;43.996;22.876;2023-01-30T01:12:44;101756.84;;;3.37;50.97
59493;BME280;45497;43.996;22.876;2023-01-30T01:15:11;101752.47;;;3.23;51.45
59493;BME280;45497;43.996;22.876;2023-01-30T01:17:38;101759.19;;;3.28;51.62
59493;BME280;45497;43.996;22.876;2023-01-30T01:20:04;101747.09;;;3.39;51.47
59493;BME280;45497;43.996;22.876;2023-01-30T01:22:30;101752.16;;;3.42;51.39
59493;BME280;45497;43.996;22.876;2023-01-30T01:24:55;101751.72;;;3.36;51.29
59493;BME280;45497;43.996;22.876;2023-01-30T01:27:21;101748.38;;;3.19;51.83
59493;BME280;45497;43.996;22.876;2023-01-30T01:29:46;101750.41;;;3.29;51.66
59493;BME280;45497;43.996;22.876;2023-01-30T01:32:12;101747.06;;;3.27;51.85
59493;BME280;45497;43.996;22.876;2023-01-30T01:34:37;101745.09;;;3.16;52.14
59493;BME280;45497;43.996;22.876;2023-01-30T01:37:03;101743.19;;;3.32;51.56
59493;BME280;45497;43.996;22.876;2023-01-30T01:39:28;101731.03;;;3.31;51.38
59493;BME280;45497;43.996;22.876;2023-01-30T01:42:13;101730.00;;;3.34;51.47
59493;BME280;45497;43.996;22.876;2023-01-30T01:47:27;101722.81;;;3.23;51.55
59493;BME280;45497;43.996;22.876;2023-01-30T01:49:53;101724.66;;;3.35;51.52
59493;BME280;45497;43.996;22.876;2023-01-30T01:52:20;101726.22;;;3.38;50.91
59493;BME280;45497;43.996;22.876;2023-01-30T01:54:49;101728.84;;;3.65;50.93
59493;BME280;45497;43.996;22.876;2023-01-30T01:57:27;101725.91;;;3.57;51.16
59493;BME280;45497;43.996;22.876;2023-01-30T02:00:00;101727.63;;;3.43;51.24
59493;BME280;45497;43.996;22.876;2023-01-30T02:02:26;101725.63;;;3.47;51.10
59493;BME280;45497;43.996;22.876;2023-01-30T02:04:55;101720.63;;;3.44;51.40
59493;BME280;45497;43.996;22.876;2023-01-30T02:10:00;101725.97;;;3.82;50.42
59493;BME280;45497;43.996;22.876;2023-01-30T02:12:26;101721.88;;;3.78;50.32
59493;BME280;45497;43.996;22.876;2023-01-30T02:14:53;101721.06;;;3.91;50.43
59493;BME280;45497;43.996;22.876;2023-01-30T02:17:22;101719.38;;;3.50;51.49
59493;BME280;45497;43.996;22.876;2023-01-30T02:30:51;101716.00;;;3.75;50.77
59493;BME280;45497;43.996;22.876;2023-01-30T02:42:04;101705.28;;;3.78;51.02
59493;BME280;45497;43.996;22.876;2023-01-30T02:47:15;101708.22;;;3.73;51.53
59493;BME280;45497;43.996;22.876;2023-01-30T02:49:52;101706.47;;;3.87;51.27
59493;BME280;45497;43.996;22.876;2023-01-30T02:52:20;101702.78;;;3.76;51.43
59493;BME280;45497;43.996;22.876;2023-01-30T02:54:46;101706.69;;;3.83;51.34
59493;BME280;45497;43.996;22.876;2023-01-30T02:57:20;101710.66;;;3.76;51.81
59493;BME280;45497;43.996;22.876;2023-01-30T02:59:48;101706.31;;;3.62;51.81
59493;BME280;45497;43.996;22.876;2023-01-30T03:07:49;101701.03;;;3.50;52.37
59493;BME280;45497;43.996;22.876;2023-01-30T03:10:37;101688.06;;;3.61;52.02
59493;BME280;45497;43.996;22.876;2023-01-30T03:13:14;101698.06;;;3.41;52.64
59493;BME280;45497;43.996;22.876;2023-01-30T03:15:58;101691.41;;;3.63;52.44
59493;BME280;45497;43.996;22.876;2023-01-30T03:18:25;101689.31;;;3.68;52.38
59493;BME280;45497;43.996;22.876;2023-01-30T03:20:51;101686.06;;;3.64;52.35
59493;BME280;45497;43.996;22.876;2023-01-30T03:23:16;101680.72;;;3.66;52.16
59493;BME280;45497;43.996;22.876;2023-01-30T03:25:43;101672.38;;;3.87;52.09
59493;BME280;45497;43.996;22.876;2023-01-30T03:28:12;101683.38;;;3.79;51.96
59493;BME280;45497;43.996;22.876;2023-01-30T03:30:38;101672.69;;;3.95;51.99
59493;BME280;45497;43.996;22.876;2023-01-30T03:33:04;101667.09;;;3.74;52.12
59493;BME280;45497;43.996;22.876;2023-01-30T03:35:29;101671.41;;;3.62;52.89
59493;BME280;45497;43.996;22.876;2023-01-30T03:37:55;101666.88;;;3.64;52.81
59493;BME280;45497;43.996;22.876;2023-01-30T03:40:22;101670.31;;;3.52;52.98
59493;BME280;45497;43.996;22.876;2023-01-30T03:42:47;101664.66;;;3.58;52.82
59493;BME280;45497;43.996;22.876;2023-01-30T03:45:13;101665.50;;;3.31;53.33
59493;BME280;45497;43.996;22.876;2023-01-30T03:47:38;101667.59;;;3.53;53.36
59493;BME280;45497;43.996;22.876;2023-01-30T03:50:04;101666.66;;;3.27;53.83
59493;BME280;45497;43.996;22.876;2023-01-30T03:52:29;101658.94;;;3.38;54.07
59493;BME280;45497;43.996;22.876;2023-01-30T03:54:55;101667.00;;;3.35;53.61
59493;BME280;45497;43.996;22.876;2023-01-30T03:57:20;101666.56;;;3.29;53.74
59493;BME280;45497;43.996;22.876;2023-01-30T03:59:46;101667.75;;;3.37;53.36
59493;BME280;45497;43.996;22.876;2023-01-30T04:02:11;101676.41;;;3.25;53.91
59493;BME280;45497;43.996;22.876;2023-01-30T04:04:37;101669.31;;;3.40;53.58
59493;BME280;45497;43.996;22.876;2023-01-30T04:07:03;101657.59;;;3.45;53.40
59493;BME280;45497;43.996;22.876;2023-01-30T04:09:28;101662.88;;;3.58;52.89
59493;BME280;45497;43.996;22.876;2023-01-30T04:11:54;101654.25;;;3.56;53.05
59493;BME280;45497;43.996;22.876;2023-01-30T04:14:19;101657.75;;;3.70;52.87
59493;BME280;45497;43.996;22.876;2023-01-30T04:16:45;101656.09;;;3.81;52.44
59493;BME280;45497;43.996;22.876;2023-01-30T04:19:10;101650.13;;;3.79;52.44
59493;BME280;45497;43.996;22.876;2023-01-30T04:21:36;101645.72;;;3.80;52.83
59493;BME280;45497;43.996;22.876;2023-01-30T04:24:02;101655.50;;;3.91;52.36
59493;BME280;45497;43.996;22.876;2023-01-30T04:26:27;101646.13;;;3.99;52.28
59493;BME280;45497;43.996;22.876;2023-01-30T04:28:53;101649.28;;;3.92;52.26
59493;BME280;45497;43.996;22.876;2023-01-30T04:31:18;101653.38;;;3.96;52.57
59493;BME280;45497;43.996;22.876;2023-01-30T04:33:44;101656.31;;;3.66;52.24
59493;BME280;45497;43.996;22.876;2023-01-30T04:36:10;101645.34;;;3.46;52.15
59493;BME280;45497;43.996;22.876;2023-01-30T04:38:35;101647.75;;;3.49;52.13
59493;BME280;45497;43.996;22.876;2023-01-30T04:41:01;101653.84;;;3.50;52.00
59493;BME280;45497;43.996;22.876;2023-01-30T04:43:28;101653.16;;;3.33;51.80
59493;BME280;45497;43.996;22.876;2023-01-30T04:45:54;101655.34;;;3.27;51.60
59493;BME280;45497;43.996;22.876;2023-01-30T04:48:21;101663.09;;;3.28;51.61
59493;BME280;45497;43.996;22.876;2023-01-30T04:50:49;101656.56;;;3.21;51.50
59493;BME280;45497;43.996;22.876;2023-01-30T04:53:16;101652.94;;;3.09;51.63
59493;BME280;45497;43.996;22.876;2023-01-30T04:55:41;101649.78;;;3.04;51.62
59493;BME280;45497;43.996;22.876;2023-01-30T04:58:07;101665.25;;;2.94;52.24
59493;BME280;45497;43.996;22.876;2023-01-30T05:00:32;101647.81;;;3.08;51.89
59493;BME280;45497;43.996;22.876;2023-01-30T05:02:58;101645.19;;;3.08;51.83
59493;BME280;45497;43.996;22.876;2023-01-30T05:05:25;101654.00;;;3.06;51.76
59493;BME280;45497;43.996;22.876;2023-01-30T05:07:51;101661.13;;;3.04;51.71
59493;BME280;45497;43.996;22.876;2023-01-30T05:10:16;101660.44;;;3.15;51.48
59493;BME280;45497;43.996;22.876;2023-01-30T05:12:42;101661.69;;;2.95;50.96
59493;BME280;45497;43.996;22.876;2023-01-30T05:15:08;101652.94;;;3.09;50.53
59493;BME280;45497;43.996;22.876;2023-01-30T05:17:34;101664.28;;;2.95;50.43
59493;BME280;45497;43.996;22.876;2023-01-30T05:20:00;101667.78;;;2.96;50.26
59493;BME280;45497;43.996;22.876;2023-01-30T05:22:25;101667.69;;;2.97;50.21
59493;BME280;45497;43.996;22.876;2023-01-30T05:24:50;101647.47;;;3.27;49.95
59493;BME280;45497;43.996;22.876;2023-01-30T05:27:16;101658.09;;;3.38;49.76
59493;BME280;45497;43.996;22.876;2023-01-30T05:29:42;101656.91;;;3.29;49.60
59493;BME280;45497;43.996;22.876;2023-01-30T05:32:11;101658.50;;;3.04;49.56
59493;BME280;45497;43.996;22.876;2023-01-30T05:34:36;101665.34;;;2.93;49.86
59493;BME280;45497;43.996;22.876;2023-01-30T05:37:02;101664.03;;;3.00;49.77
59493;BME280;45497;43.996;22.876;2023-01-30T05:39:27;101666.69;;;3.13;49.12
59493;BME280;45497;43.996;22.876;2023-01-30T05:41:53;101659.25;;;3.06;48.55
59493;BME280;45497;43.996;22.876;2023-01-30T05:44:18;101645.47;;;2.76;48.15
59493;BME280;45497;43.996;22.876;2023-01-30T05:46:44;101653.75;;;2.82;48.44
59493;BME280;45497;43.996;22.876;2023-01-30T05:49:09;101658.16;;;2.82;48.16
59493;BME280;45497;43.996;22.876;2023-01-30T05:51:35;101661.63;;;2.82;47.67
59493;BME280;45497;43.996;22.876;2023-01-30T05:54:00;101652.94;;;2.82;47.83
59493;BME280;45497;43.996;22.876;2023-01-30T05:56:25;101663.25;;;2.71;47.89
59493;BME280;45497;43.996;22.876;2023-01-30T05:58:55;101663.25;;;2.71;48.34
59493;BME280;45497;43.996;22.876;2023-01-30T06:01:21;101677.13;;;3.00;47.81
59493;BME280;45497;43.996;22.876;2023-01-30T06:03:48;101677.81;;;3.16;47.61
59493;BME280;45497;43.996;22.876;2023-01-30T06:06:14;101671.78;;;3.01;47.61
59493;BME280;45497;43.996;22.876;2023-01-30T06:08:39;101682.53;;;2.97;47.95
59493;BME280;45497;43.996;22.876;2023-01-30T06:11:10;101679.84;;;2.84;48.03
59493;BME280;45497;43.996;22.876;2023-01-30T06:13:36;101670.13;;;2.72;48.04
59493;BME280;45497;43.996;22.876;2023-01-30T06:16:04;101667.25;;;2.62;48.71
59493;BME280;45497;43.996;22.876;2023-01-30T06:18:29;101663.78;;;2.90;48.22
59493;BME280;45497;43.996;22.876;2023-01-30T06:20:55;101659.56;;;2.87;48.06
59493;BME280;45497;43.996;22.876;2023-01-30T06:23:20;101659.56;;;2.73;48.44
59493;BME280;45497;43.996;22.876;2023-01-30T06:25:48;101659.38;;;2.76;48.40
59493;BME280;45497;43.996;22.876;2023-01-30T06:28:15;101670.59;;;2.93;48.14
59493;BME280;45497;43.996;22.876;2023-01-30T06:30:41;101661.72;;;2.81;47.89
59493;BME280;45497;43.996;22.876;2023-01-30T06:33:07;101666.41;;;2.76;48.17
59493;BME280;45497;43.996;22.876;2023-01-30T06:35:33;101665.00;;;2.70;48.29
59493;BME280;45497;43.996;22.876;2023-01-30T06:37:58;101668.69;;;2.95;48.11
59493;BME280;45497;43.996;22.876;2023-01-30T06:40:24;101666.78;;;2.70;48.29
59493;BME280;45497;43.996;22.876;2023-01-30T06:42:49;101659.97;;;2.53;48.47
59493;BME280;45497;43.996;22.876;2023-01-30T06:45:16;101666.69;;;2.57;48.33
59493;BME280;45497;43.996;22.876;2023-01-30T06:47:49;101660.53;;;2.72;48.32
59493;BME280;45497;43.996;22.876;2023-01-30T06:50:16;101659.88;;;2.54;48.44
59493;BME280;45497;43.996;22.876;2023-01-30T06:52:46;101670.28;;;2.56;48.71
59493;BME280;45497;43.996;22.876;2023-01-30T06:55:14;101656.41;;;2.39;48.57
59493;BME280;45497;43.996;22.876;2023-01-30T06:57:41;101658.75;;;2.58;48.87
59493;BME280;45497;43.996;22.876;2023-01-30T07:00:10;101661.28;;;2.60;48.33
59493;BME280;45497;43.996;22.876;2023-01-30T07:02:36;101655.97;;;2.47;48.78
59493;BME280;45497;43.996;22.876;2023-01-30T07:05:03;101664.00;;;2.58;48.65
59493;BME280;45497;43.996;22.876;2023-01-30T07:07:30;101675.25;;;2.87;48.18
59493;BME280;45497;43.996;22.876;2023-01-30T07:09:56;101663.00;;;2.88;48.00
59493;BME280;45497;43.996;22.876;2023-01-30T07:12:23;101675.91;;;2.91;47.85
59493;BME280;45497;43.996;22.876;2023-01-30T07:14:49;101661.59;;;2.97;48.25
59493;BME280;45497;43.996;22.876;2023-01-30T07:17:15;101667.47;;;3.00;47.61
59493;BME280;45497;43.996;22.876;2023-01-30T07:19:42;101672.72;;;2.86;47.73
59493;BME280;45497;43.996;22.876;2023-01-30T07:22:07;101667.50;;;2.86;47.73
59493;BME280;45497;43.996;22.876;2023-01-30T07:24:33;101671.16;;;2.83;47.42
59493;BME280;45497;43.996;22.876;2023-01-30T07:26:58;101670.03;;;2.87;47.34
59493;BME280;45497;43.996;22.876;2023-01-30T07:29:24;101683.78;;;2.77;47.54
59493;BME280;45497;43.996;22.876;2023-01-30T07:31:50;101682.47;;;2.84;47.44
59493;BME280;45497;43.996;22.876;2023-01-30T07:34:16;101685.88;;;3.13;47.43
59493;BME280;45497;43.996;22.876;2023-01-30T07:36:41;101675.75;;;3.21;47.31
59493;BME280;45497;43.996;22.876;2023-01-30T07:39:07;101676.03;;;3.17;46.65
59493;BME280;45497;43.996;22.876;2023-01-30T07:41:34;101685.78;;;3.15;47.26
59493;BME280;45497;43.996;22.876;2023-01-30T07:44:00;101687.09;;;3.08;46.65
59493;BME280;45497;43.996;22.876;2023-01-30T07:46:26;101687.09;;;3.08;47.03
59493;BME280;45497;43.996;22.876;2023-01-30T07:48:52;101681.53;;;3.27;47.09
59493;BME280;45497;43.996;22.876;2023-01-30T07:51:18;101676.63;;;3.08;47.40
59493;BME280;45497;43.996;22.876;2023-01-30T07:53:43;101671.31;;;2.95;47.68
59493;BME280;45497;43.996;22.876;2023-01-30T07:56:10;101678.41;;;3.07;47.68
59493;BME280;45497;43.996;22.876;2023-01-30T07:58:38;101669.84;;;2.91;47.46
59493;BME280;45497;43.996;22.876;2023-01-30T08:01:04;101659.63;;;2.86;48.05
59493;BME280;45497;43.996;22.876;2023-01-30T08:03:30;101662.97;;;2.46;48.37
59493;BME280;45497;43.996;22.876;2023-01-30T08:05:55;101671.59;;;2.48;48.90
59493;BME280;45497;43.996;22.876;2023-01-30T08:08:20;101678.78;;;2.45;49.10
59493;BME280;45497;43.996;22.876;2023-01-30T08:10:49;101673.63;;;2.29;49.36
59493;BME280;45497;43.996;22.876;2023-01-30T08:13:14;101659.00;;;2.10;49.21
59493;BME280;45497;43.996;22.876;2023-01-30T08:15:40;101659.97;;;2.24;48.92
59493;BME280;45497;43.996;22.876;2023-01-30T08:18:06;101654.53;;;1.98;48.74
59493;BME280;45497;43.996;22.876;2023-01-30T08:20:32;101666.41;;;2.18;48.64
59493;BME280;45497;43.996;22.876;2023-01-30T08:22:58;101670.44;;;2.24;47.63
59493;BME280;45497;43.996;22.876;2023-01-30T08:25:26;101664.53;;;2.06;48.18
59493;BME280;45497;43.996;22.876;2023-01-30T08:27:52;101662.78;;;2.21;47.84
59493;BME280;45497;43.996;22.876;2023-01-30T08:30:19;101661.84;;;2.36;47.38
59493;BME280;45497;43.996;22.876;2023-01-30T08:32:44;101656.97;;;2.16;47.57
59493;BME280;45497;43.996;22.876;2023-01-30T08:35:10;101669.72;;;2.36;46.69
59493;BME280;45497;43.996;22.876;2023-01-30T08:37:38;101669.88;;;2.33;46.80
59493;BME280;45497;43.996;22.876;2023-01-30T08:40:04;101658.50;;;2.34;47.00
59493;BME280;45497;43.996;22.876;2023-01-30T08:42:29;101661.94;;;2.35;46.99
59493;BME280;45497;43.996;22.876;2023-01-30T08:44:55;101673.16;;;2.51;46.96
59493;BME280;45497;43.996;22.876;2023-01-30T08:47:20;101667.75;;;2.54;46.59
59493;BME280;45497;43.996;22.876;2023-01-30T08:49:46;101677.56;;;2.36;46.55
59493;BME280;45497;43.996;22.876;2023-01-30T08:52:11;101680.19;;;2.51;46.25
59493;BME280;45497;43.996;22.876;2023-01-30T08:54:38;101660.06;;;2.51;46.03
59493;BME280;45497;43.996;22.876;2023-01-30T08:57:03;101664.56;;;2.63;46.18
59493;BME280;45497;43.996;22.876;2023-01-30T08:59:29;101666.47;;;2.89;45.60
59493;BME280;45497;43.996;22.876;2023-01-30T09:01:55;101660.34;;;2.61;45.24
59493;BME280;45497;43.996;22.876;2023-01-30T09:04:20;101657.13;;;2.70;45.64
59493;BME280;45497;43.996;22.876;2023-01-30T09:06:49;101657.34;;;3.09;45.58
59493;BME280;45497;43.996;22.876;2023-01-30T09:09:15;101649.41;;;3.10;44.66
59493;BME280;45497;43.996;22.876;2023-01-30T09:11:40;101656.09;;;2.87;44.93
59493;BME280;45497;43.996;22.876;2023-01-30T09:14:06;101646.56;;;2.72;44.67
59493;BME280;45497;43.996;22.876;2023-01-30T09:16:31;101650.78;;;2.74;45.03
59493;BME280;45497;43.996;22.876;2023-01-30T09:18:57;101644.81;;;2.72;45.16
59493;BME280;45497;43.996;22.876;2023-01-30T09:21:22;101647.91;;;2.50;45.01
59493;BME280;45497;43.996;22.876;2023-01-30T09:23:48;101644.38;;;2.37;44.94
59493;BME280;45497;43.996;22.876;2023-01-30T09:26:14;101635.84;;;2.62;45.70
59493;BME280;45497;43.996;22.876;2023-01-30T09:28:39;101628.09;;;3.02;44.70
59493;BME280;45497;43.996;22.876;2023-01-30T09:31:05;101631.50;;;3.17;44.01
59493;BME280;45497;43.996;22.876;2023-01-30T09:33:31;101618.94;;;2.95;44.24
59493;BME280;45497;43.996;22.876;2023-01-30T09:35:56;101623.38;;;2.80;44.20
59493;BME280;45497;43.996;22.876;2023-01-30T09:38:22;101617.44;;;3.05;44.16
59493;BME280;45497;43.996;22.876;2023-01-30T09:46:15;101619.63;;;3.11;43.77
59493;BME280;45497;43.996;22.876;2023-01-30T09:49:07;101600.22;;;3.28;44.33
59493;BME280;45497;43.996;22.876;2023-01-30T09:54:35;101593.94;;;3.43;43.93
59493;BME280;45497;43.996;22.876;2023-01-30T09:57:22;101592.34;;;3.28;43.91
59493;BME280;45497;43.996;22.876;2023-01-30T10:00:01;101592.84;;;3.20;43.57
59493;BME280;45497;43.996;22.876;2023-01-30T10:05:20;101581.84;;;3.15;43.88
59493;BME280;45497;43.996;22.876;2023-01-30T10:13:28;101561.69;;;2.76;44.33
59493;BME280;45497;43.996;22.876;2023-01-30T10:16:12;101561.94;;;3.25;44.11
59493;BME280;45497;43.996;22.876;2023-01-30T10:21:29;101545.75;;;3.72;43.38
59493;BME280;45497;43.996;22.876;2023-01-30T10:26:42;101530.09;;;3.83;43.14
59493;BME280;45497;43.996;22.876;2023-01-30T10:29:22;101536.06;;;3.85;42.56
59493;BME280;45497;43.996;22.876;2023-01-30T10:32:04;101529.56;;;3.78;42.36
59493;BME280;45497;43.996;22.876;2023-01-30T10:34:36;101528.41;;;3.31;43.14
59493;BME280;45497;43.996;22.876;2023-01-30T10:37:07;101519.38;;;3.22;42.82
59493;BME280;45497;43.996;22.876;2023-01-30T10:39:50;101509.88;;;3.72;44.15
59493;BME280;45497;43.996;22.876;2023-01-30T10:42:37;101519.44;;;3.60;42.95
59493;BME280;45497;43.996;22.876;2023-01-30T10:45:15;101506.09;;;3.63;43.15
59493;BME280;45497;43.996;22.876;2023-01-30T10:50:44;101485.63;;;3.69;42.43
59493;BME280;45497;43.996;22.876;2023-01-30T10:53:36;101475.03;;;3.83;42.63
59493;BME280;45497;43.996;22.876;2023-01-30T10:56:11;101476.41;;;3.63;42.31
59493;BME280;45497;43.996;22.876;2023-01-30T10:59:02;101466.25;;;3.71;42.58
59493;BME280;45497;43.996;22.876;2023-01-30T11:01:53;101448.06;;;3.81;42.38
59493;BME280;45497;43.996;22.876;2023-01-30T11:04:52;101455.00;;;3.82;42.64
59493;BME280;45497;43.996;22.876;2023-01-30T11:07:21;101451.31;;;3.85;41.97
59493;BME280;45497;43.996;22.876;2023-01-30T11:09:47;101440.41;;;3.91;41.28
59493;BME280;45497;43.996;22.876;2023-01-30T11:12:13;101442.13;;;3.66;41.96
59493;BME280;45497;43.996;22.876;2023-01-30T11:17:17;101420.97;;;3.43;42.00
59493;BME280;45497;43.996;22.876;2023-01-30T11:19:44;101408.00;;;3.79;41.93
59493;BME280;45497;43.996;22.876;2023-01-30T11:22:13;101396.94;;;3.99;41.90
59493;BME280;45497;43.996;22.876;2023-01-30T11:24:42;101386.72;;;3.71;42.87
59493;BME280;45497;43.996;22.876;2023-01-30T11:29:42;101374.75;;;3.42;42.52
59493;BME280;45497;43.996;22.876;2023-01-30T11:32:14;101372.63;;;3.35;42.68
59493;BME280;45497;43.996;22.876;2023-01-30T11:35:01;101362.03;;;3.62;42.17
59493;BME280;45497;43.996;22.876;2023-01-30T11:37:33;101360.84;;;3.66;41.76
59493;BME280;45497;43.996;22.876;2023-01-30T11:40:09;101347.75;;;3.90;41.99
59493;BME280;45497;43.996;22.876;2023-01-30T11:43:00;101341.41;;;4.06;41.66
59493;BME280;45497;43.996;22.876;2023-01-30T11:45:26;101343.66;;;4.34;41.62
59493;BME280;45497;43.996;22.876;2023-01-30T11:48:00;101329.16;;;3.32;42.77
59493;BME280;45497;43.996;22.876;2023-01-30T11:50:47;101332.06;;;3.77;42.85
59493;BME280;45497;43.996;22.876;2023-01-30T11:53:28;101331.09;;;3.91;43.11
59493;BME280;45497;43.996;22.876;2023-01-30T11:55:57;101313.84;;;4.35;42.14
59493;BME280;45497;43.996;22.876;2023-01-30T11:58:29;101313.69;;;4.01;41.10
59493;BME280;45497;43.996;22.876;2023-01-30T12:00:54;101307.03;;;4.33;41.71
59493;BME280;45497;43.996;22.876;2023-01-30T12:03:22;101290.66;;;4.76;41.42
59493;BME280;45497;43.996;22.876;2023-01-30T12:05:49;101286.94;;;4.56;40.40
59493;BME280;45497;43.996;22.876;2023-01-30T12:10:45;101292.00;;;4.35;41.83
59493;BME280;45497;43.996;22.876;2023-01-30T12:13:25;101288.47;;;3.76;43.02
59493;BME280;45497;43.996;22.876;2023-01-30T12:16:02;101277.91;;;3.89;43.10
59493;BME280;45497;43.996;22.876;2023-01-30T12:18:38;101273.25;;;4.28;42.17
59493;BME280;45497;43.996;22.876;2023-01-30T12:23:46;101261.50;;;4.56;41.56
59493;BME280;45497;43.996;22.876;2023-01-30T12:28:49;101270.22;;;4.10;43.02
59493;BME280;45497;43.996;22.876;2023-01-30T12:31:21;101271.25;;;3.96;43.50
59493;BME280;45497;43.996;22.876;2023-01-30T12:33:49;101255.19;;;3.77;44.09
59493;BME280;45497;43.996;22.876;2023-01-30T12:49:50;101249.63;;;4.28;42.11
59493;BME280;45497;43.996;22.876;2023-01-30T12:55:07;101234.03;;;4.49;41.89
59493;BME280;45497;43.996;22.876;2023-01-30T12:57:54;101234.19;;;4.70;40.95
59493;BME280;45497;43.996;22.876;2023-01-30T13:05:40;101214.34;;;5.00;40.88
59493;BME280;45497;43.996;22.876;2023-01-30T13:14:20;101195.28;;;4.75;41.06
59493;BME280;45497;43.996;22.876;2023-01-30T13:19:25;101194.06;;;4.91;40.93
59493;BME280;45497;43.996;22.876;2023-01-30T13:22:11;101191.06;;;4.95;41.14
59493;BME280;45497;43.996;22.876;2023-01-30T13:25:06;101195.38;;;5.40;41.34
59493;BME280;45497;43.996;22.876;2023-01-30T13:27:43;101187.28;;;5.32;41.16
59493;BME280;45497;43.996;22.876;2023-01-30T13:30:14;101182.50;;;4.93;40.86
59493;BME280;45497;43.996;22.876;2023-01-30T13:32:50;101169.94;;;4.97;41.21
59493;BME280;45497;43.996;22.876;2023-01-30T13:35:26;101172.84;;;4.60;42.59
59493;BME280;45497;43.996;22.876;2023-01-30T13:37:54;101172.59;;;4.63;42.40
59493;BME280;45497;43.996;22.876;2023-01-30T13:40:26;101175.06;;;4.87;41.07
59493;BME280;45497;43.996;22.876;2023-01-30T13:43:03;101173.53;;;4.85;40.86
59493;BME280;45497;43.996;22.876;2023-01-30T13:45:34;101162.41;;;4.92;41.28
59493;BME280;45497;43.996;22.876;2023-01-30T13:48:14;101164.00;;;4.61;41.44
59493;BME280;45497;43.996;22.876;2023-01-30T13:51:05;101166.88;;;4.58;41.48
59493;BME280;45497;43.996;22.876;2023-01-30T13:56:20;101163.50;;;4.78;41.37
59493;BME280;45497;43.996;22.876;2023-01-30T14:01:13;101144.28;;;4.78;41.56
59493;BME280;45497;43.996;22.876;2023-01-30T14:03:41;101144.84;;;4.93;41.59
59493;BME280;45497;43.996;22.876;2023-01-30T14:08:55;101128.84;;;4.96;41.37
59493;BME280;45497;43.996;22.876;2023-01-30T14:14:40;101116.66;;;4.95;41.51
59493;BME280;45497;43.996;22.876;2023-01-30T14:17:13;101118.44;;;5.06;41.59
59493;BME280;45497;43.996;22.876;2023-01-30T14:19:43;101117.84;;;5.02;42.12
59493;BME280;45497;43.996;22.876;2023-01-30T14:22:17;101112.66;;;4.79;42.11
59493;BME280;45497;43.996;22.876;2023-01-30T14:38:26;101069.25;;;4.96;41.80
59493;BME280;45497;43.996;22.876;2023-01-30T14:59:45;101078.13;;;4.84;43.10
59493;BME280;45497;43.996;22.876;2023-01-30T15:07:23;101067.88;;;4.70;43.07
59493;BME280;45497;43.996;22.876;2023-01-30T15:09:57;101083.13;;;4.87;43.13
59493;BME280;45497;43.996;22.876;2023-01-30T15:12:52;101076.47;;;4.83;43.52
59493;BME280;45497;43.996;22.876;2023-01-30T15:21:25;101066.94;;;4.71;43.83
59493;BME280;45497;43.996;22.876;2023-01-30T15:24:10;101063.16;;;4.64;43.88
59493;BME280;45497;43.996;22.876;2023-01-30T15:30:01;101045.44;;;4.77;44.61
59493;BME280;45497;43.996;22.876;2023-01-30T15:32:30;101047.13;;;5.10;43.91
59493;BME280;45497;43.996;22.876;2023-01-30T15:35:02;101052.50;;;5.09;44.05
59493;BME280;45497;43.996;22.876;2023-01-30T15:42:43;101040.34;;;4.96;44.25
59493;BME280;45497;43.996;22.876;2023-01-30T15:48:02;101031.22;;;5.12;44.64